createdAt,value
2023-02-03T00:00:32.134Z,93.2
2023-02-03T00:03:28.694Z,93.2
2023-02-03T00:06:28.463Z,93.2
2023-02-03T00:09:31.815Z,93.4
2023-02-03T00:12:28.780Z,93.4
2023-02-03T00:15:28.885Z,93.4
2023-02-03T00:18:29.178Z,93.4
2023-02-03T00:21:32.277Z,93.7
2023-02-03T00:24:29.049Z,93.7
2023-02-03T00:27:29.343Z,93.7
2023-02-03T00:30:32.232Z,93.9
2023-02-03T00:33:28.933Z,93.9
2023-02-03T00:36:28.935Z,93.9
2023-02-03T00:39:32.429Z,94.1
2023-02-03T00:42:28.853Z,94.1
2023-02-03T00:45:29.044Z,94.1
2023-02-03T00:48:32.457Z,94.3
2023-02-03T00:51:28.824Z,94.3
2023-02-03T00:54:28.929Z,94.3
2023-02-03T00:57:29.042Z,94.3
2023-02-03T01:00:32.518Z,94.5
2023-02-03T01:03:29.252Z,94.5
2023-02-03T01:06:29.336Z,94.5
2023-02-03T01:09:32.383Z,94.7
2023-02-03T01:12:29.126Z,94.7
2023-02-03T01:15:29.106Z,94.7
2023-02-03T01:18:32.276Z,94.9
2023-02-03T01:21:28.694Z,94.9
2023-02-03T01:24:28.917Z,94.9
2023-02-03T01:27:32.137Z,95
2023-02-03T01:30:30.054Z,95
2023-02-03T01:33:29.314Z,95
2023-02-03T01:36:29.198Z,95
2023-02-03T01:39:32.274Z,95
2023-02-03T01:42:28.774Z,95
2023-02-03T01:45:28.922Z,95
2023-02-03T01:48:32.232Z,95
2023-02-03T01:51:28.923Z,95
2023-02-03T01:54:29.167Z,95
2023-02-03T01:57:32.349Z,94.9
2023-02-03T02:00:29.868Z,94.9
2023-02-03T02:03:29.254Z,94.9
2023-02-03T02:06:32.485Z,94.7
2023-02-03T02:09:29.414Z,94.7
2023-02-03T02:12:28.608Z,94.7
2023-02-03T02:15:28.706Z,94.7
2023-02-03T02:18:32.225Z,94.5
2023-02-03T02:21:28.570Z,94.5
2023-02-03T02:24:28.819Z,94.5
2023-02-03T02:27:31.892Z,94.3
2023-02-03T02:30:29.495Z,94.3
2023-02-03T02:33:29.405Z,94.3
2023-02-03T02:36:31.553Z,94
2023-02-03T02:39:29.076Z,94
2023-02-03T02:42:28.762Z,94
2023-02-03T02:45:31.938Z,93.8
2023-02-03T02:48:28.477Z,93.8
2023-02-03T02:51:28.346Z,93.8
2023-02-03T02:54:29.450Z,93.8
2023-02-03T02:57:31.859Z,93.6
2023-02-03T03:00:29.600Z,93.6
2023-02-03T03:03:28.514Z,93.6
2023-02-03T03:06:31.679Z,93.5
2023-02-03T03:09:29.252Z,93.5
2023-02-03T03:12:29.353Z,93.5
2023-02-03T03:15:31.755Z,93.3
2023-02-03T03:18:28.701Z,93.3
2023-02-03T03:21:28.925Z,93.3
2023-02-03T03:24:32.433Z,93.2
2023-02-03T03:27:28.896Z,93.2
2023-02-03T03:30:29.784Z,93.2
2023-02-03T03:33:28.407Z,93.2
2023-02-03T03:36:31.610Z,93
2023-02-03T03:39:29.414Z,93
2023-02-03T03:42:32.277Z,93
2023-02-03T03:45:32.438Z,92.8
2023-02-03T03:48:29.232Z,92.8
2023-02-03T03:51:29.398Z,92.8
2023-02-03T03:54:32.355Z,92.7
2023-02-03T03:57:28.951Z,92.7
2023-02-03T04:00:29.948Z,92.7
2023-02-03T04:03:32.657Z,92.7
2023-02-03T04:06:28.450Z,92.7
2023-02-03T04:09:28.608Z,92.7
2023-02-03T04:12:28.445Z,92.7
2023-02-03T04:15:32.673Z,92.7
2023-02-03T04:18:29.297Z,92.7
2023-02-03T04:21:28.998Z,92.7
2023-02-03T04:24:32.085Z,92.7
2023-02-03T04:27:29.021Z,92.7
2023-02-03T04:30:30.481Z,92.7
2023-02-03T04:33:31.883Z,92.8
2023-02-03T04:36:28.646Z,92.8
2023-02-03T04:39:28.691Z,92.8
2023-02-03T04:42:31.919Z,93
2023-02-03T04:45:29.630Z,93
2023-02-03T04:48:29.361Z,93
2023-02-03T04:51:29.567Z,93
2023-02-03T04:54:31.300Z,93.2
2023-02-03T04:57:28.966Z,93.2
2023-02-03T05:00:30.845Z,93.2
2023-02-03T05:03:32.531Z,93.5
2023-02-03T05:06:29.501Z,93.5
2023-02-03T05:09:29.555Z,93.5
2023-02-03T05:12:31.651Z,93.7
2023-02-03T05:15:28.951Z,93.7
2023-02-03T05:18:28.821Z,93.7
2023-02-03T05:21:31.775Z,93.8
2023-02-03T05:24:28.448Z,93.8
2023-02-03T05:27:28.612Z,93.8
2023-02-03T05:30:47.784Z,94
2023-02-03T05:33:28.466Z,94
2023-02-03T05:36:29.335Z,94
2023-02-03T05:39:29.304Z,94
2023-02-03T05:42:32.196Z,94.1
2023-02-03T05:45:29.266Z,94.1
2023-02-03T05:48:28.639Z,94.1
2023-02-03T05:51:31.822Z,94.2
2023-02-03T05:54:28.435Z,94.2
2023-02-03T05:57:32.676Z,94.2
2023-02-03T06:00:47.591Z,94.3
2023-02-03T06:03:29.591Z,94.3
2023-02-03T06:06:29.206Z,94.3
2023-02-03T06:09:29.183Z,94.3
2023-02-03T06:12:33.421Z,94.4
2023-02-03T06:15:29.443Z,94.4
2023-02-03T06:18:28.576Z,94.4
2023-02-03T06:21:32.012Z,94.5
2023-02-03T06:24:28.521Z,94.5
2023-02-03T06:27:28.790Z,94.5
2023-02-03T06:30:33.320Z,94.6
2023-02-03T06:33:29.112Z,94.6
2023-02-03T06:36:29.073Z,94.6
2023-02-03T06:39:32.055Z,94.7
2023-02-03T06:42:28.494Z,94.7
2023-02-03T06:45:29.554Z,94.7
2023-02-03T06:48:28.765Z,94.7
2023-02-03T06:51:31.777Z,94.7
2023-02-03T06:54:28.849Z,94.7
2023-02-03T06:57:29.183Z,94.7
2023-02-03T07:00:33.333Z,94.8
2023-02-03T07:03:30.518Z,94.8
2023-02-03T07:06:28.774Z,94.8
2023-02-03T07:09:32.101Z,94.8
2023-02-03T07:12:29.022Z,94.8
2023-02-03T07:15:29.006Z,94.8
2023-02-03T07:18:51.895Z,94.8
2023-02-03T07:21:28.667Z,94.8
2023-02-03T07:24:28.882Z,94.8
2023-02-03T07:27:32.154Z,94.7
2023-02-03T07:30:31.036Z,94.7
2023-02-03T07:33:28.900Z,94.7
2023-02-03T07:36:29.574Z,94.7
2023-02-03T07:39:32.025Z,94.7
2023-02-03T07:42:28.744Z,94.7
2023-02-03T07:45:28.855Z,94.7
2023-02-03T07:48:32.573Z,94.7
2023-02-03T07:51:29.421Z,94.7
2023-02-03T07:54:28.748Z,94.7
2023-02-03T07:57:32.340Z,94.6
2023-02-03T08:00:30.879Z,94.6
2023-02-03T08:03:29.427Z,94.6
2023-02-03T08:06:31.825Z,94.6
2023-02-03T08:09:29.898Z,94.6
2023-02-03T08:12:29.339Z,94.6
2023-02-03T08:15:29.623Z,94.6
2023-02-03T08:18:36.365Z,94.4
2023-02-03T08:21:29.229Z,94.4
2023-02-03T08:24:29.321Z,94.4
2023-02-03T08:27:31.746Z,94.1
2023-02-03T08:30:31.227Z,94.1
2023-02-03T08:33:28.721Z,94.1
2023-02-03T08:36:32.381Z,93.7
2023-02-03T08:39:29.043Z,93.7
2023-02-03T08:42:29.014Z,93.7
2023-02-03T08:45:32.292Z,93.3
2023-02-03T08:48:29.261Z,93.3
2023-02-03T08:51:28.707Z,93.3
2023-02-03T08:54:28.894Z,93.3
2023-02-03T08:57:32.336Z,92.8
2023-02-03T09:00:31.140Z,92.8
2023-02-03T09:03:29.534Z,92.8
2023-02-03T09:06:31.973Z,92
2023-02-03T09:09:28.588Z,92
2023-02-03T09:12:29.290Z,92
2023-02-03T09:15:31.610Z,91.2
2023-02-03T09:18:29.332Z,91.2
2023-02-03T09:21:48.826Z,91.2
2023-02-03T09:24:32.542Z,90.2
2023-02-03T09:27:29.291Z,90.2
2023-02-03T09:30:31.138Z,90.2
2023-02-03T09:33:28.575Z,90.2
2023-02-03T09:36:31.914Z,89.3
2023-02-03T09:39:28.813Z,89.3
2023-02-03T09:42:29.599Z,89.3
2023-02-03T09:45:32.038Z,88.5
2023-02-03T09:48:29.076Z,88.5
2023-02-03T09:51:29.369Z,88.5
2023-02-03T09:54:32.698Z,87.8
2023-02-03T09:57:28.344Z,87.8
2023-02-03T10:00:30.446Z,87.8
2023-02-03T10:03:31.873Z,86.9
2023-02-03T10:06:29.420Z,86.9
2023-02-03T10:09:28.716Z,86.9
2023-02-03T10:12:28.880Z,86.9
2023-02-03T10:15:32.541Z,86
2023-02-03T10:18:29.248Z,86
2023-02-03T10:21:28.495Z,86
2023-02-03T10:24:31.790Z,85.3
2023-02-03T10:27:29.415Z,85.3
2023-02-03T10:30:32.010Z,85.3
2023-02-03T10:33:32.583Z,84.7
2023-02-03T10:36:29.511Z,84.7
2023-02-03T10:39:28.835Z,84.7
2023-02-03T10:42:32.060Z,84.2
2023-02-03T10:45:28.583Z,84.2
2023-02-03T10:48:28.914Z,84.2
2023-02-03T10:51:28.735Z,84.2
2023-02-03T10:54:32.215Z,83.7
2023-02-03T10:57:28.973Z,83.7
2023-02-03T11:00:30.933Z,83.7
2023-02-03T11:03:32.816Z,83.1
2023-02-03T11:06:28.741Z,83.1
2023-02-03T11:09:28.714Z,83.1
2023-02-03T11:12:32.531Z,82.4
2023-02-03T11:15:30.400Z,82.4
2023-02-03T11:18:29.649Z,82.4
2023-02-03T11:21:31.840Z,81.8
2023-02-03T11:24:28.593Z,81.8
2023-02-03T11:27:29.011Z,81.8
2023-02-03T11:30:36.344Z,81.8
2023-02-03T11:33:32.572Z,81.3
2023-02-03T11:36:29.272Z,81.3
2023-02-03T11:39:28.623Z,81.3
2023-02-03T11:42:32.169Z,80.7
2023-02-03T11:45:29.329Z,80.7
2023-02-03T11:48:29.741Z,80.7
2023-02-03T11:51:36.077Z,80.1
2023-02-03T11:54:29.224Z,80.1
2023-02-03T11:57:28.497Z,80.1
2023-02-03T12:00:47.622Z,79.6
2023-02-03T12:03:29.260Z,79.6
2023-02-03T12:06:28.697Z,79.6
2023-02-03T12:09:28.858Z,79.6
2023-02-03T12:12:32.307Z,79
2023-02-03T12:15:29.245Z,79
2023-02-03T12:18:29.337Z,79
2023-02-03T12:21:32.621Z,78.6
2023-02-03T12:24:28.738Z,78.6
2023-02-03T12:27:29.916Z,78.6
2023-02-03T12:30:35.579Z,78.1
2023-02-03T12:33:28.633Z,78.1
2023-02-03T12:36:28.663Z,78.1
2023-02-03T12:39:32.183Z,77.6
2023-02-03T12:42:28.779Z,77.6
2023-02-03T12:45:29.749Z,77.6
2023-02-03T12:48:32.439Z,77.3
2023-02-03T12:51:29.320Z,77.3
2023-02-03T12:54:29.702Z,77.3
2023-02-03T12:57:29.914Z,77.3
2023-02-03T13:00:37.668Z,77.1
2023-02-03T13:03:28.573Z,77.1
2023-02-03T13:06:28.709Z,77.1
2023-02-03T13:09:32.018Z,77.1
2023-02-03T13:12:28.763Z,77.1
2023-02-03T13:15:30.018Z,77.1
2023-02-03T13:18:33.008Z,77
2023-02-03T13:21:29.127Z,77
2023-02-03T13:24:29.323Z,77
2023-02-03T13:27:31.885Z,77
2023-02-03T13:30:32.796Z,77
2023-02-03T13:33:29.143Z,77
2023-02-03T13:36:29.681Z,77
2023-02-03T13:39:32.180Z,77
2023-02-03T13:42:29.248Z,77
2023-02-03T13:45:29.984Z,77
2023-02-03T13:48:32.393Z,77.1
2023-02-03T13:51:28.817Z,77.1
2023-02-03T13:54:28.972Z,77.1
2023-02-03T13:57:32.280Z,77.2
2023-02-03T14:00:44.803Z,77.2
2023-02-03T14:03:29.566Z,77.2
2023-02-03T14:06:32.419Z,77.4
2023-02-03T14:09:29.431Z,77.4
2023-02-03T14:12:28.684Z,77.4
2023-02-03T14:15:30.866Z,77.4
2023-02-03T14:18:32.561Z,77.4
2023-02-03T14:21:29.540Z,77.4
2023-02-03T14:24:28.848Z,77.4
2023-02-03T14:27:32.227Z,77.5
2023-02-03T14:30:29.537Z,77.5
2023-02-03T14:33:28.832Z,77.5
2023-02-03T14:36:32.254Z,77.7
2023-02-03T14:39:28.848Z,77.7
2023-02-03T14:42:29.089Z,77.7
2023-02-03T14:45:33.217Z,77.9
2023-02-03T14:48:28.974Z,77.9
2023-02-03T14:51:29.102Z,77.9
2023-02-03T14:54:29.176Z,77.9
2023-02-03T14:57:31.804Z,78.3
2023-02-03T15:00:29.459Z,78.3
2023-02-03T15:03:28.795Z,78.3
2023-02-03T15:06:38.374Z,78.6
2023-02-03T15:09:29.238Z,78.6
2023-02-03T15:12:29.652Z,78.6
2023-02-03T15:15:33.495Z,78.8
2023-02-03T15:18:29.375Z,78.8
2023-02-03T15:21:28.744Z,78.8
2023-02-03T15:24:32.244Z,79.1
2023-02-03T15:27:28.747Z,79.1
2023-02-03T15:30:29.023Z,79.1
2023-02-03T15:33:32.204Z,79.4
2023-02-03T15:36:29.148Z,79.4
2023-02-03T15:39:29.434Z,79.4
2023-02-03T15:42:28.642Z,79.4
2023-02-03T15:45:32.791Z,79.5
2023-02-03T15:48:28.825Z,79.5
2023-02-03T15:51:28.593Z,79.5
2023-02-03T15:54:31.865Z,79.6
2023-02-03T15:57:28.664Z,79.6
2023-02-03T16:00:28.860Z,79.6
2023-02-03T16:03:32.323Z,79.7
2023-02-03T16:06:29.093Z,79.7
2023-02-03T16:09:29.296Z,79.7
2023-02-03T16:12:32.647Z,79.9
2023-02-03T16:15:31.479Z,79.9
2023-02-03T16:18:29.701Z,79.9
2023-02-03T16:21:29.019Z,79.9
2023-02-03T16:24:32.214Z,80.3
2023-02-03T16:27:28.986Z,80.3
2023-02-03T16:30:29.310Z,80.3
2023-02-03T16:33:32.512Z,80.9
2023-02-03T16:36:29.942Z,80.9
2023-02-03T16:39:29.335Z,80.9
2023-02-03T16:42:31.813Z,81.7
2023-02-03T16:45:29.214Z,81.7
2023-02-03T16:48:28.766Z,81.7
2023-02-03T16:51:32.367Z,82.5
2023-02-03T16:54:29.124Z,82.5
2023-02-03T16:57:29.487Z,82.5
2023-02-03T17:00:28.985Z,82.5
2023-02-03T17:03:32.510Z,83.3
2023-02-03T17:06:29.485Z,83.3
2023-02-03T17:09:29.062Z,83.3
2023-02-03T17:12:32.502Z,84.2
2023-02-03T17:15:31.457Z,84.2
2023-02-03T17:18:28.757Z,84.2
2023-02-03T17:21:31.952Z,85.3
2023-02-03T17:24:28.784Z,85.3
2023-02-03T17:27:29.423Z,85.3
2023-02-03T17:30:32.222Z,86.3
2023-02-03T17:33:29.031Z,86.3
2023-02-03T17:36:28.650Z,86.3
2023-02-03T17:54:32.986Z,87.7
2023-02-03T17:57:34.698Z,87.7
2023-02-03T18:00:33.574Z,88
2023-02-03T18:03:29.025Z,88
2023-02-03T18:06:29.152Z,88
2023-02-03T18:09:29.245Z,88
2023-02-03T18:12:29.493Z,88
2023-02-03T18:15:28.968Z,88
2023-02-03T18:18:29.114Z,88
2023-02-03T18:21:32.757Z,88.2
2023-02-03T18:24:28.746Z,88.2
2023-02-03T18:27:29.105Z,88.2
2023-02-03T18:30:34.432Z,88.3
2023-02-03T18:33:29.435Z,88.3
2023-02-03T18:36:29.389Z,88.3
2023-02-03T18:39:31.978Z,88.3
2023-02-03T18:42:28.860Z,88.3
2023-02-03T18:45:29.206Z,88.3
2023-02-03T18:48:32.520Z,88.3
2023-02-03T18:51:29.192Z,88.3
2023-02-03T18:54:29.361Z,88.3
2023-02-03T18:57:28.811Z,88.3
2023-02-03T19:00:36.330Z,88.2
2023-02-03T19:03:29.181Z,88.2
2023-02-03T19:06:30.439Z,88.2
2023-02-03T19:09:38.290Z,88.1
2023-02-03T19:12:28.980Z,88.1
2023-02-03T19:15:29.499Z,88.1
2023-02-03T19:18:31.857Z,87.8
2023-02-03T19:21:28.477Z,87.8
2023-02-03T19:24:28.759Z,87.8
2023-02-03T19:27:31.912Z,87.7
2023-02-03T19:30:31.312Z,87.7
2023-02-03T19:33:28.828Z,87.7
2023-02-03T19:36:31.985Z,87.5
2023-02-03T19:39:28.473Z,87.5
2023-02-03T19:42:28.809Z,87.5
2023-02-03T19:45:28.709Z,87.5
2023-02-03T19:48:32.257Z,87.4
2023-02-03T19:51:29.010Z,87.4
2023-02-03T19:54:29.435Z,87.4
2023-02-03T19:57:31.688Z,87.4
2023-02-03T20:00:31.143Z,87.4
2023-02-03T20:03:29.134Z,87.4
2023-02-03T20:06:32.455Z,87.4
2023-02-03T20:09:29.222Z,87.4
2023-02-03T20:12:29.526Z,87.4
2023-02-03T20:15:32.135Z,87.3
2023-02-03T20:18:28.912Z,87.3
2023-02-03T20:21:28.992Z,87.3
2023-02-03T20:24:29.199Z,87.3
2023-02-03T20:27:31.456Z,87.5
2023-02-03T20:30:31.283Z,87.5
2023-02-03T20:33:28.912Z,87.5
2023-02-03T20:36:32.043Z,87.8
2023-02-03T20:39:29.027Z,87.8
2023-02-03T20:42:29.266Z,87.8
2023-02-03T20:45:33.627Z,88
2023-02-03T20:48:29.233Z,88
2023-02-03T20:51:29.115Z,88
2023-02-03T20:54:31.768Z,88
2023-02-03T20:57:29.178Z,88
2023-02-03T21:00:31.132Z,88
2023-02-03T21:03:29.119Z,88
2023-02-03T21:06:32.405Z,87.8
2023-02-03T21:09:29.256Z,87.8
2023-02-03T21:12:29.405Z,87.8
2023-02-03T21:15:31.607Z,87.3
2023-02-03T21:18:29.132Z,87.3
2023-02-03T21:21:29.071Z,87.3
2023-02-03T21:24:32.433Z,86.6
2023-02-03T21:27:29.370Z,86.6
2023-02-03T21:30:31.236Z,86.6
2023-02-03T21:33:31.749Z,85.8
2023-02-03T21:36:29.450Z,85.8
2023-02-03T21:39:28.777Z,85.8
2023-02-03T21:42:28.914Z,85.8
2023-02-03T21:45:31.957Z,85
2023-02-03T21:48:28.868Z,85
2023-02-03T21:51:29.088Z,85
2023-02-03T21:54:32.436Z,84.3
2023-02-03T21:57:29.217Z,84.3
2023-02-03T22:00:30.393Z,84.3
2023-02-03T22:03:32.787Z,83.6
2023-02-03T22:06:29.342Z,83.6
2023-02-03T22:09:28.753Z,83.6
2023-02-03T22:12:32.054Z,83.2
2023-02-03T22:15:28.768Z,83.2
2023-02-03T22:18:29.564Z,83.2
2023-02-03T22:21:29.178Z,83.2
2023-02-03T22:24:32.524Z,82.9
2023-02-03T22:27:29.113Z,82.9
2023-02-03T22:30:31.650Z,82.9
2023-02-03T22:33:32.664Z,82.7
2023-02-03T22:36:29.291Z,82.7
2023-02-03T22:39:29.506Z,82.7
2023-02-03T22:42:31.805Z,82.6
2023-02-03T22:45:29.183Z,82.6
2023-02-03T22:48:29.263Z,82.6
2023-02-03T22:51:32.660Z,82.7
2023-02-03T22:54:29.211Z,82.7
2023-02-03T22:57:29.239Z,82.7
2023-02-03T23:00:32.423Z,82.7
2023-02-03T23:03:33.125Z,82.6
2023-02-03T23:06:29.218Z,82.6
2023-02-03T23:09:29.279Z,82.6
2023-02-03T23:12:31.757Z,82.6
2023-02-03T23:15:29.906Z,82.6
2023-02-03T23:18:29.446Z,82.6
2023-02-03T23:21:31.596Z,82.4
2023-02-03T23:24:29.069Z,82.4
2023-02-03T23:27:29.210Z,82.4
2023-02-03T23:30:34.322Z,82.3
2023-02-03T23:33:29.049Z,82.3
2023-02-03T23:36:29.289Z,82.3
2023-02-03T23:39:29.331Z,82.3
2023-02-03T23:42:32.492Z,82.3
2023-02-03T23:45:29.270Z,82.3
2023-02-03T23:48:28.665Z,82.3
2023-02-03T23:51:31.858Z,82.5
2023-02-03T23:54:28.700Z,82.5
2023-02-03T23:57:28.836Z,82.5
